TimeCST,TemperatureF,Dew PointF,Humidity,Sea Level PressureIn,VisibilityMPH,Wind Direction,Wind SpeedMPH,Gust SpeedMPH,PrecipitationIn,Events,Conditions,WindDirDegrees,DateUTC
12:53 AM,46.9,43.0,86,29.88,10.0,ESE,5.8,-,N/A,,Overcast,120,2012-12-07 06:53:00
1:53 AM,48.0,44.1,86,29.87,10.0,ESE,9.2,-,N/A,,Overcast,120,2012-12-07 07:53:00
2:53 AM,48.0,45.0,89,29.86,10.0,SE,8.1,-,N/A,,Overcast,140,2012-12-07 08:53:00
3:01 AM,48.2,44.6,87,29.86,10.0,SSE,6.9,-,N/A,,Overcast,150,2012-12-07 09:01:00
3:53 AM,48.0,46.0,93,29.85,8.0,SSE,9.2,-,N/A,,Overcast,160,2012-12-07 09:53:00
4:53 AM,48.9,46.9,93,29.85,10.0,South,6.9,-,N/A,,Overcast,180,2012-12-07 10:53:00
5:41 AM,50.0,46.4,87,29.84,10.0,SSW,8.1,-,N/A,,Overcast,200,2012-12-07 11:41:00
5:53 AM,51.1,46.9,86,29.85,10.0,SSW,9.2,-,N/A,,Overcast,210,2012-12-07 11:53:00
6:53 AM,50.0,46.9,89,29.85,10.0,SW,9.2,-,N/A,,Overcast,230,2012-12-07 12:53:00
7:53 AM,50.0,46.0,86,29.85,10.0,SW,10.4,-,N/A,,Overcast,230,2012-12-07 13:53:00
8:53 AM,50.0,46.9,89,29.87,10.0,WSW,11.5,-,N/A,,Overcast,240,2012-12-07 14:53:00
9:53 AM,51.1,46.0,83,29.87,10.0,West,9.2,-,N/A,,Overcast,260,2012-12-07 15:53:00
10:53 AM,52.0,46.0,80,29.86,10.0,SW,6.9,-,N/A,,Partly Cloudy,230,2012-12-07 16:53:00
11:53 AM,53.1,46.0,77,29.84,10.0,WSW,4.6,-,N/A,,Mostly Cloudy,250,2012-12-07 17:53:00
12:53 PM,55.0,46.0,72,29.82,10.0,WSW,5.8,-,N/A,,Clear,240,2012-12-07 18:53:00
1:53 PM,55.9,46.0,69,29.81,10.0,SW,5.8,-,N/A,,Overcast,220,2012-12-07 19:53:00
2:53 PM,55.9,46.0,69,29.81,10.0,West,5.8,-,N/A,,Overcast,270,2012-12-07 20:53:00
3:53 PM,55.0,46.0,72,29.81,10.0,WNW,4.6,-,N/A,,Mostly Cloudy,290,2012-12-07 21:53:00
4:53 PM,53.1,45.0,74,29.82,10.0,Calm,Calm,-,N/A,,Overcast,0,2012-12-07 22:53:00
5:53 PM,52.0,46.0,80,29.83,10.0,Calm,Calm,-,N/A,,Overcast,0,2012-12-07 23:53:00
6:53 PM,50.0,46.0,86,29.85,10.0,North,6.9,-,N/A,,Overcast,350,2012-12-08 00:53:00
7:53 PM,50.0,46.0,86,29.85,10.0,North,3.5,-,N/A,,Overcast,10,2012-12-08 01:53:00
8:53 PM,48.2,46.4,93,29.85,7.0,North,4.6,-,N/A,,Overcast,360,2012-12-08 02:53:00
9:18 PM,48.2,46.4,93,29.85,6.0,North,4.6,-,N/A,,Overcast,360,2012-12-08 03:18:00
9:53 PM,48.9,45.0,86,29.86,5.0,North,4.6,-,N/A,,Overcast,360,2012-12-08 03:53:00
10:17 PM,48.2,44.6,87,29.86,4.0,North,4.6,-,N/A,,Overcast,350,2012-12-08 04:17:00
10:38 PM,46.4,44.6,93,29.87,3.0,North,5.8,-,N/A,,Overcast,350,2012-12-08 04:38:00
10:53 PM,48.0,45.0,89,29.88,2.5,North,6.9,-,N/A,,Overcast,350,2012-12-08 04:53:00
11:53 PM,46.9,45.0,93,29.88,2.5,NNW,8.1,-,N/A,,Overcast,340,2012-12-08 05:53:00